Banks, Mississippi
Current Conditions -  °F | °C
As of 1:55 PM on Thursday 27 Nov 2014 (Local Time) from KUTA Reporting Station
Overcast Overcast  
Wind Chill:   Ceiling: 4200
Heat Index:   Visibility: 10mi
Dew Point:   Wind: 8mph
Humidity: 66%   Direction: 320°NW
Pressure: 30.5"   Gusts: NA
Location:  34.8092°N, 90.3159°W
Report Text: KUTA 271955Z AUTO 32007KT 10SM SCT036 OVC042 06/00 A3050 RMK AO2
Loading
Personal Weather Stations






























Interactive Weather Map New forecast layout! Learn more

10-Day Weather Forecast

Advertisements
Track Severe Weather on mobile